Kings Beach, California
Current Conditions -  °F | °C
As of 10:35 PM on Tuesday 27 Jan 2015 (Local Time) from KTRK Reporting Station
Scattered Clouds Scattered Clouds  
Wind Chill: 30°   Ceiling: Unl
Heat Index: 30°   Visibility: 10mi
Dew Point: 28°   Wind: 0mph
Humidity: 93%   Direction: NA
Pressure: 30.31"   Gusts: NA
Location:  39.24°N, 120.03°W
Report Text: KTRK 280635Z AUTO 00000KT 10SM SCT050 M01/M02 A3031 RMK AO2
Loading
Personal Weather Stations






























Interactive Weather Map New forecast layout! Learn more

10-Day Weather Forecast

Advertisements
Track Severe Weather on mobile